sensor_id;sensor_type;location;lat;lon;timestamp;noise_LAeq;noise_LA_min;noise_LA_max;noise_LA01;noise_LA95
40465;Laerm;30489;48.982;8.394;2023-12-20T00:01:36;39.00;36.77;47.14;;
40465;Laerm;30489;48.982;8.394;2023-12-20T00:03:47;38.95;36.91;44.76;;
40465;Laerm;30489;48.982;8.394;2023-12-20T00:05:58;38.91;36.45;40.62;;
40465;Laerm;30489;48.982;8.394;2023-12-20T00:08:08;38.88;36.69;40.71;;
40465;Laerm;30489;48.982;8.394;2023-12-20T00:10:18;38.87;36.69;40.71;;
40465;Laerm;30489;48.982;8.394;2023-12-20T00:12:28;38.87;36.45;40.80;;
40465;Laerm;30489;48.982;8.394;2023-12-20T00:14:38;38.82;36.45;40.62;;
40465;Laerm;30489;48.982;8.394;2023-12-20T00:16:49;38.82;36.69;40.62;;
40465;Laerm;30489;48.982;8.394;2023-12-20T00:18:59;38.83;36.20;40.98;;
40465;Laerm;30489;48.982;8.394;2023-12-20T00:21:09;38.82;36.20;40.53;;
40465;Laerm;30489;48.982;8.394;2023-12-20T00:23:19;38.80;35.94;40.80;;
40465;Laerm;30489;48.982;8.394;2023-12-20T00:25:29;38.81;36.45;40.71;;
40465;Laerm;30489;48.982;8.394;2023-12-20T00:27:40;38.79;36.45;40.62;;
40465;Laerm;30489;48.982;8.394;2023-12-20T00:29:50;38.78;36.45;40.80;;
40465;Laerm;30489;48.982;8.394;2023-12-20T00:32:00;38.79;36.20;40.71;;
40465;Laerm;30489;48.982;8.394;2023-12-20T00:34:10;38.77;36.45;40.53;;
40465;Laerm;30489;48.982;8.394;2023-12-20T00:36:21;38.76;36.20;40.71;;
40465;Laerm;30489;48.982;8.394;2023-12-20T00:38:31;38.76;36.34;40.62;;
40465;Laerm;30489;48.982;8.394;2023-12-20T00:40:41;38.72;36.45;41.06;;
40465;Laerm;30489;48.982;8.394;2023-12-20T00:42:51;38.85;36.45;58.64;;
40465;Laerm;30489;48.982;8.394;2023-12-20T00:45:01;38.72;36.45;40.71;;
40465;Laerm;30489;48.982;8.394;2023-12-20T00:47:12;38.70;36.45;40.80;;
40465;Laerm;30489;48.982;8.394;2023-12-20T00:49:23;38.71;36.20;40.53;;
40465;Laerm;30489;48.982;8.394;2023-12-20T00:51:33;38.71;36.45;40.71;;
40465;Laerm;30489;48.982;8.394;2023-12-20T00:53:43;49.48;33.44;84.81;;
40465;Laerm;30489;48.982;8.394;2023-12-20T00:55:53;38.66;36.20;40.71;;
40465;Laerm;30489;48.982;8.394;2023-12-20T00:58:04;38.63;35.94;40.98;;
40465;Laerm;30489;48.982;8.394;2023-12-20T01:00:14;38.64;36.20;40.43;;
40465;Laerm;30489;48.982;8.394;2023-12-20T01:02:24;38.64;36.20;40.53;;
40465;Laerm;30489;48.982;8.394;2023-12-20T01:04:34;38.64;36.20;40.53;;
40465;Laerm;30489;48.982;8.394;2023-12-20T01:06:44;38.65;36.45;40.62;;
40465;Laerm;30489;48.982;8.394;2023-12-20T01:08:55;38.63;36.20;40.53;;
40465;Laerm;30489;48.982;8.394;2023-12-20T01:11:05;38.63;36.20;40.53;;
40465;Laerm;30489;48.982;8.394;2023-12-20T01:13:15;38.65;36.20;40.53;;
40465;Laerm;30489;48.982;8.394;2023-12-20T01:15:26;38.64;36.45;40.62;;
40465;Laerm;30489;48.982;8.394;2023-12-20T01:17:36;38.64;36.45;40.89;;
40465;Laerm;30489;48.982;8.394;2023-12-20T01:19:46;38.62;35.94;40.53;;
40465;Laerm;30489;48.982;8.394;2023-12-20T01:21:56;38.62;36.20;40.53;;
40465;Laerm;30489;48.982;8.394;2023-12-20T01:24:06;38.62;36.20;40.53;;
40465;Laerm;30489;48.982;8.394;2023-12-20T01:26:17;38.63;36.20;52.02;;
40465;Laerm;30489;48.982;8.394;2023-12-20T01:28:27;38.62;35.66;40.53;;
40465;Laerm;30489;48.982;8.394;2023-12-20T01:30:37;38.62;36.20;40.89;;
40465;Laerm;30489;48.982;8.394;2023-12-20T01:32:48;38.62;36.45;40.43;;
40465;Laerm;30489;48.982;8.394;2023-12-20T01:34:58;38.62;36.10;40.33;;
40465;Laerm;30489;48.982;8.394;2023-12-20T01:37:08;38.60;36.20;40.53;;
40465;Laerm;30489;48.982;8.394;2023-12-20T01:39:18;38.60;35.66;40.53;;
40465;Laerm;30489;48.982;8.394;2023-12-20T01:41:28;38.61;36.20;41.06;;
40465;Laerm;30489;48.982;8.394;2023-12-20T01:43:38;38.60;35.94;40.43;;
40465;Laerm;30489;48.982;8.394;2023-12-20T01:45:49;38.59;36.20;40.62;;
40465;Laerm;30489;48.982;8.394;2023-12-20T01:47:59;38.59;35.94;40.62;;
40465;Laerm;30489;48.982;8.394;2023-12-20T01:50:09;38.62;36.20;40.53;;
40465;Laerm;30489;48.982;8.394;2023-12-20T01:52:20;38.61;35.94;40.43;;
40465;Laerm;30489;48.982;8.394;2023-12-20T01:54:30;38.62;36.20;40.36;;
40465;Laerm;30489;48.982;8.394;2023-12-20T01:56:41;38.61;36.20;40.33;;
40465;Laerm;30489;48.982;8.394;2023-12-20T01:58:52;38.61;35.66;40.45;;
40465;Laerm;30489;48.982;8.394;2023-12-20T02:01:02;38.61;35.94;40.62;;
40465;Laerm;30489;48.982;8.394;2023-12-20T02:03:13;38.61;35.94;40.23;;
40465;Laerm;30489;48.982;8.394;2023-12-20T02:05:23;38.60;36.45;40.80;;
40465;Laerm;30489;48.982;8.394;2023-12-20T02:07:33;38.60;35.94;40.54;;
40465;Laerm;30489;48.982;8.394;2023-12-20T02:09:46;38.61;36.20;40.80;;
40465;Laerm;30489;48.982;8.394;2023-12-20T02:11:57;38.59;36.20;40.80;;
40465;Laerm;30489;48.982;8.394;2023-12-20T02:14:07;38.59;36.20;40.71;;
40465;Laerm;30489;48.982;8.394;2023-12-20T02:16:17;38.59;36.20;40.53;;
40465;Laerm;30489;48.982;8.394;2023-12-20T02:18:27;38.60;36.20;40.71;;
40465;Laerm;30489;48.982;8.394;2023-12-20T02:20:37;38.61;36.20;41.06;;
40465;Laerm;30489;48.982;8.394;2023-12-20T02:22:47;38.62;36.20;43.90;;
40465;Laerm;30489;48.982;8.394;2023-12-20T02:24:58;38.60;35.94;40.62;;
40465;Laerm;30489;48.982;8.394;2023-12-20T02:27:08;38.59;35.94;40.80;;
40465;Laerm;30489;48.982;8.394;2023-12-20T02:29:18;38.57;36.20;40.71;;
40465;Laerm;30489;48.982;8.394;2023-12-20T02:31:29;38.59;36.45;40.80;;
40465;Laerm;30489;48.982;8.394;2023-12-20T02:33:39;38.59;35.94;40.80;;
40465;Laerm;30489;48.982;8.394;2023-12-20T02:35:49;38.57;36.20;41.22;;
40465;Laerm;30489;48.982;8.394;2023-12-20T02:38:00;38.60;35.94;40.71;;
40465;Laerm;30489;48.982;8.394;2023-12-20T02:40:10;38.58;36.20;40.71;;
40465;Laerm;30489;48.982;8.394;2023-12-20T02:42:20;38.58;36.20;40.54;;
40465;Laerm;30489;48.982;8.394;2023-12-20T02:44:30;38.59;36.20;40.71;;
40465;Laerm;30489;48.982;8.394;2023-12-20T02:46:40;38.60;36.20;40.43;;
40465;Laerm;30489;48.982;8.394;2023-12-20T02:48:50;38.59;35.94;40.53;;
40465;Laerm;30489;48.982;8.394;2023-12-20T02:51:01;38.59;36.20;40.88;;
40465;Laerm;30489;48.982;8.394;2023-12-20T02:53:11;38.61;36.45;40.53;;
40465;Laerm;30489;48.982;8.394;2023-12-20T02:55:21;38.57;35.94;40.71;;
40465;Laerm;30489;48.982;8.394;2023-12-20T02:57:31;38.61;36.45;40.62;;
40465;Laerm;30489;48.982;8.394;2023-12-20T02:59:43;38.60;36.45;40.71;;
40465;Laerm;30489;48.982;8.394;2023-12-20T03:01:53;38.58;36.20;40.33;;
40465;Laerm;30489;48.982;8.394;2023-12-20T03:04:03;38.58;36.20;40.43;;
40465;Laerm;30489;48.982;8.394;2023-12-20T03:06:17;38.59;35.94;40.98;;
40465;Laerm;30489;48.982;8.394;2023-12-20T03:08:28;38.59;35.66;40.33;;
40465;Laerm;30489;48.982;8.394;2023-12-20T03:10:38;38.59;35.94;40.62;;
40465;Laerm;30489;48.982;8.394;2023-12-20T03:12:49;38.62;35.66;40.80;;
40465;Laerm;30489;48.982;8.394;2023-12-20T03:14:59;38.56;36.20;40.33;;
40465;Laerm;30489;48.982;8.394;2023-12-20T03:17:09;38.57;35.94;40.62;;
40465;Laerm;30489;48.982;8.394;2023-12-20T03:19:19;38.58;35.86;40.43;;
40465;Laerm;30489;48.982;8.394;2023-12-20T03:21:29;38.55;35.94;40.62;;
40465;Laerm;30489;48.982;8.394;2023-12-20T03:23:40;38.55;36.20;40.71;;
40465;Laerm;30489;48.982;8.394;2023-12-20T03:25:50;38.53;35.94;40.33;;
40465;Laerm;30489;48.982;8.394;2023-12-20T03:28:00;38.55;35.66;40.43;;
40465;Laerm;30489;48.982;8.394;2023-12-20T03:30:10;38.54;36.20;40.62;;
40465;Laerm;30489;48.982;8.394;2023-12-20T03:32:21;38.57;35.94;40.53;;
40465;Laerm;30489;48.982;8.394;2023-12-20T03:34:31;38.57;35.94;40.53;;
40465;Laerm;30489;48.982;8.394;2023-12-20T03:36:41;38.55;35.94;40.71;;
40465;Laerm;30489;48.982;8.394;2023-12-20T03:38:51;38.57;35.94;41.06;;
40465;Laerm;30489;48.982;8.394;2023-12-20T03:41:01;38.61;35.66;56.66;;
40465;Laerm;30489;48.982;8.394;2023-12-20T03:43:12;38.54;36.20;40.43;;
40465;Laerm;30489;48.982;8.394;2023-12-20T03:45:22;38.52;35.66;40.43;;
40465;Laerm;30489;48.982;8.394;2023-12-20T03:47:32;38.54;35.94;40.71;;
40465;Laerm;30489;48.982;8.394;2023-12-20T03:49:42;38.53;35.86;40.80;;
40465;Laerm;30489;48.982;8.394;2023-12-20T03:51:52;38.54;36.20;40.80;;
40465;Laerm;30489;48.982;8.394;2023-12-20T03:54:02;38.55;35.94;40.62;;
40465;Laerm;30489;48.982;8.394;2023-12-20T03:56:13;38.53;35.04;40.43;;
40465;Laerm;30489;48.982;8.394;2023-12-20T03:58:23;38.52;35.94;40.62;;
40465;Laerm;30489;48.982;8.394;2023-12-20T04:00:33;38.54;35.94;40.43;;
40465;Laerm;30489;48.982;8.394;2023-12-20T04:02:43;38.53;36.20;40.33;;
40465;Laerm;30489;48.982;8.394;2023-12-20T04:04:53;38.54;36.20;40.53;;
40465;Laerm;30489;48.982;8.394;2023-12-20T04:07:04;38.55;35.94;40.53;;
40465;Laerm;30489;48.982;8.394;2023-12-20T04:09:14;38.52;36.20;40.53;;
40465;Laerm;30489;48.982;8.394;2023-12-20T04:11:24;38.53;35.94;40.80;;
40465;Laerm;30489;48.982;8.394;2023-12-20T04:13:34;38.53;36.20;40.43;;
40465;Laerm;30489;48.982;8.394;2023-12-20T04:15:45;38.54;35.94;40.53;;
40465;Laerm;30489;48.982;8.394;2023-12-20T04:17:55;38.54;36.20;41.06;;
40465;Laerm;30489;48.982;8.394;2023-12-20T04:20:05;38.56;35.94;40.98;;
40465;Laerm;30489;48.982;8.394;2023-12-20T04:22:16;38.56;35.94;40.43;;
40465;Laerm;30489;48.982;8.394;2023-12-20T04:24:27;38.54;36.20;40.71;;
40465;Laerm;30489;48.982;8.394;2023-12-20T04:26:37;38.56;35.94;40.53;;
40465;Laerm;30489;48.982;8.394;2023-12-20T04:28:47;38.54;35.94;40.89;;
40465;Laerm;30489;48.982;8.394;2023-12-20T04:30:57;38.55;36.45;40.43;;
40465;Laerm;30489;48.982;8.394;2023-12-20T04:33:07;38.54;35.66;40.53;;
40465;Laerm;30489;48.982;8.394;2023-12-20T04:35:18;38.54;35.94;40.89;;
40465;Laerm;30489;48.982;8.394;2023-12-20T04:37:28;38.54;36.20;40.80;;
40465;Laerm;30489;48.982;8.394;2023-12-20T04:39:38;38.55;35.94;40.98;;
40465;Laerm;30489;48.982;8.394;2023-12-20T04:41:48;38.59;35.94;40.53;;
40465;Laerm;30489;48.982;8.394;2023-12-20T04:44:00;38.58;35.94;40.89;;
40465;Laerm;30489;48.982;8.394;2023-12-20T04:46:10;38.59;36.20;40.53;;
40465;Laerm;30489;48.982;8.394;2023-12-20T04:48:20;38.59;36.20;40.53;;
40465;Laerm;30489;48.982;8.394;2023-12-20T04:50:31;38.57;35.66;40.71;;
40465;Laerm;30489;48.982;8.394;2023-12-20T04:52:41;38.58;35.94;40.53;;
40465;Laerm;30489;48.982;8.394;2023-12-20T04:54:51;38.59;36.20;40.71;;
40465;Laerm;30489;48.982;8.394;2023-12-20T04:57:01;38.57;36.20;40.53;;
40465;Laerm;30489;48.982;8.394;2023-12-20T04:59:11;38.58;35.66;40.80;;
40465;Laerm;30489;48.982;8.394;2023-12-20T05:01:22;38.57;35.66;40.53;;
40465;Laerm;30489;48.982;8.394;2023-12-20T05:03:32;38.58;36.20;40.62;;
40465;Laerm;30489;48.982;8.394;2023-12-20T05:05:42;38.58;36.20;40.62;;
40465;Laerm;30489;48.982;8.394;2023-12-20T05:07:53;38.58;35.94;40.80;;
40465;Laerm;30489;48.982;8.394;2023-12-20T05:10:03;38.57;35.94;40.88;;
40465;Laerm;30489;48.982;8.394;2023-12-20T05:12:14;38.59;35.04;40.80;;
40465;Laerm;30489;48.982;8.394;2023-12-20T05:14:25;38.58;35.94;40.53;;
40465;Laerm;30489;48.982;8.394;2023-12-20T05:16:35;38.58;36.20;40.71;;
40465;Laerm;30489;48.982;8.394;2023-12-20T05:18:45;38.58;35.94;40.53;;
40465;Laerm;30489;48.982;8.394;2023-12-20T05:20:55;38.58;35.66;40.43;;
40465;Laerm;30489;48.982;8.394;2023-12-20T05:23:06;38.57;35.94;40.45;;
40465;Laerm;30489;48.982;8.394;2023-12-20T05:25:17;38.59;35.94;40.62;;
40465;Laerm;30489;48.982;8.394;2023-12-20T05:27:27;38.58;35.94;40.53;;
40465;Laerm;30489;48.982;8.394;2023-12-20T05:29:37;38.61;35.36;40.89;;
40465;Laerm;30489;48.982;8.394;2023-12-20T05:31:47;38.60;36.20;40.43;;
40465;Laerm;30489;48.982;8.394;2023-12-20T05:33:58;38.59;36.20;40.62;;
40465;Laerm;30489;48.982;8.394;2023-12-20T05:36:08;38.59;35.94;40.71;;
40465;Laerm;30489;48.982;8.394;2023-12-20T05:38:21;38.59;35.94;40.43;;
40465;Laerm;30489;48.982;8.394;2023-12-20T05:40:31;38.59;36.20;40.53;;
40465;Laerm;30489;48.982;8.394;2023-12-20T05:42:41;38.58;35.94;40.53;;
40465;Laerm;30489;48.982;8.394;2023-12-20T05:44:52;38.58;36.20;40.43;;
40465;Laerm;30489;48.982;8.394;2023-12-20T05:47:02;38.59;35.94;40.62;;
40465;Laerm;30489;48.982;8.394;2023-12-20T05:49:12;38.59;35.94;40.79;;
40465;Laerm;30489;48.982;8.394;2023-12-20T05:51:23;38.59;35.94;40.62;;
40465;Laerm;30489;48.982;8.394;2023-12-20T05:53:34;38.58;36.20;40.53;;
40465;Laerm;30489;48.982;8.394;2023-12-20T05:55:44;38.58;35.94;40.71;;
40465;Laerm;30489;48.982;8.394;2023-12-20T05:57:54;38.58;36.20;40.53;;
40465;Laerm;30489;48.982;8.394;2023-12-20T06:00:05;38.58;36.20;40.53;;
40465;Laerm;30489;48.982;8.394;2023-12-20T06:02:16;38.59;36.10;40.53;;
40465;Laerm;30489;48.982;8.394;2023-12-20T06:04:26;38.59;35.94;40.53;;
40465;Laerm;30489;48.982;8.394;2023-12-20T06:06:43;38.58;35.66;40.62;;
40465;Laerm;30489;48.982;8.394;2023-12-20T06:08:53;38.57;35.94;40.62;;
40465;Laerm;30489;48.982;8.394;2023-12-20T06:11:03;38.57;35.66;40.71;;
40465;Laerm;30489;48.982;8.394;2023-12-20T06:13:15;38.57;35.94;40.53;;
40465;Laerm;30489;48.982;8.394;2023-12-20T06:15:25;38.59;36.20;40.80;;
40465;Laerm;30489;48.982;8.394;2023-12-20T06:17:35;38.60;36.20;40.43;;
40465;Laerm;30489;48.982;8.394;2023-12-20T06:19:46;38.58;36.10;40.53;;
40465;Laerm;30489;48.982;8.394;2023-12-20T06:21:58;38.60;36.20;40.62;;
40465;Laerm;30489;48.982;8.394;2023-12-20T06:24:08;38.60;35.94;40.89;;
40465;Laerm;30489;48.982;8.394;2023-12-20T06:26:19;38.57;36.20;40.80;;
40465;Laerm;30489;48.982;8.394;2023-12-20T06:28:29;38.58;36.20;40.43;;
40465;Laerm;30489;48.982;8.394;2023-12-20T06:30:40;38.62;36.20;40.43;;
40465;Laerm;30489;48.982;8.394;2023-12-20T06:32:50;38.61;36.45;40.80;;
40465;Laerm;30489;48.982;8.394;2023-12-20T06:35:01;38.60;35.94;40.53;;
40465;Laerm;30489;48.982;8.394;2023-12-20T06:37:11;38.61;35.94;40.53;;
40465;Laerm;30489;48.982;8.394;2023-12-20T06:39:21;38.59;35.66;40.62;;
40465;Laerm;30489;48.982;8.394;2023-12-20T06:41:31;38.60;35.66;40.23;;
40465;Laerm;30489;48.982;8.394;2023-12-20T06:43:42;38.61;36.20;40.33;;
40465;Laerm;30489;48.982;8.394;2023-12-20T06:45:52;38.62;35.94;40.33;;
40465;Laerm;30489;48.982;8.394;2023-12-20T06:48:02;38.62;35.94;40.53;;
40465;Laerm;30489;48.982;8.394;2023-12-20T06:50:12;38.64;36.69;40.62;;
40465;Laerm;30489;48.982;8.394;2023-12-20T06:52:23;38.65;36.10;40.53;;
40465;Laerm;30489;48.982;8.394;2023-12-20T06:54:33;38.66;35.94;40.43;;
40465;Laerm;30489;48.982;8.394;2023-12-20T06:56:44;38.67;36.45;40.62;;
40465;Laerm;30489;48.982;8.394;2023-12-20T06:58:54;38.68;35.66;40.80;;
40465;Laerm;30489;48.982;8.394;2023-12-20T07:01:04;38.70;36.45;40.62;;
40465;Laerm;30489;48.982;8.394;2023-12-20T07:03:15;38.69;36.20;40.80;;
40465;Laerm;30489;48.982;8.394;2023-12-20T07:05:26;38.71;36.20;40.98;;
40465;Laerm;30489;48.982;8.394;2023-12-20T07:07:36;38.71;36.20;40.43;;
40465;Laerm;30489;48.982;8.394;2023-12-20T07:09:46;38.71;36.45;40.80;;
40465;Laerm;30489;48.982;8.394;2023-12-20T07:11:57;38.70;36.45;40.80;;
40465;Laerm;30489;48.982;8.394;2023-12-20T07:14:07;38.72;36.20;40.71;;
40465;Laerm;30489;48.982;8.394;2023-12-20T07:16:17;38.70;36.45;40.53;;
40465;Laerm;30489;48.982;8.394;2023-12-20T07:18:27;38.70;35.66;40.71;;
40465;Laerm;30489;48.982;8.394;2023-12-20T07:20:38;38.70;36.20;40.53;;
40465;Laerm;30489;48.982;8.394;2023-12-20T07:22:49;38.70;36.45;40.43;;
40465;Laerm;30489;48.982;8.394;2023-12-20T07:24:59;38.67;36.20;40.53;;
40465;Laerm;30489;48.982;8.394;2023-12-20T07:27:10;38.66;36.45;40.53;;
40465;Laerm;30489;48.982;8.394;2023-12-20T07:29:20;38.67;36.69;40.71;;
40465;Laerm;30489;48.982;8.394;2023-12-20T07:31:30;38.68;35.94;40.62;;
40465;Laerm;30489;48.982;8.394;2023-12-20T07:33:40;38.65;36.45;40.89;;
40465;Laerm;30489;48.982;8.394;2023-12-20T07:35:51;38.64;36.20;40.54;;
40465;Laerm;30489;48.982;8.394;2023-12-20T07:38:01;38.64;36.45;40.33;;
40465;Laerm;30489;48.982;8.394;2023-12-20T07:40:12;38.66;36.45;40.62;;
40465;Laerm;30489;48.982;8.394;2023-12-20T07:42:22;38.65;36.45;40.62;;
40465;Laerm;30489;48.982;8.394;2023-12-20T07:44:33;38.62;35.66;40.62;;
40465;Laerm;30489;48.982;8.394;2023-12-20T07:46:43;38.63;35.94;40.53;;
40465;Laerm;30489;48.982;8.394;2023-12-20T07:48:53;38.63;36.20;40.53;;
40465;Laerm;30489;48.982;8.394;2023-12-20T07:51:04;38.65;35.66;40.80;;
40465;Laerm;30489;48.982;8.394;2023-12-20T07:53:15;38.67;36.20;40.62;;
40465;Laerm;30489;48.982;8.394;2023-12-20T07:55:26;38.65;36.20;40.80;;
40465;Laerm;30489;48.982;8.394;2023-12-20T07:57:36;38.64;36.20;40.53;;
40465;Laerm;30489;48.982;8.394;2023-12-20T07:59:46;38.65;36.20;40.53;;
40465;Laerm;30489;48.982;8.394;2023-12-20T08:01:57;38.66;36.20;40.43;;
40465;Laerm;30489;48.982;8.394;2023-12-20T08:04:07;38.66;35.94;40.62;;
40465;Laerm;30489;48.982;8.394;2023-12-20T08:06:17;38.66;36.45;40.71;;
40465;Laerm;30489;48.982;8.394;2023-12-20T08:08:27;38.67;36.20;40.89;;
40465;Laerm;30489;48.982;8.394;2023-12-20T08:10:38;38.69;35.94;40.62;;
40465;Laerm;30489;48.982;8.394;2023-12-20T08:12:48;38.68;36.20;40.89;;
40465;Laerm;30489;48.982;8.394;2023-12-20T08:14:58;38.66;36.20;40.71;;
40465;Laerm;30489;48.982;8.394;2023-12-20T08:17:09;38.67;36.45;41.06;;
40465;Laerm;30489;48.982;8.394;2023-12-20T08:19:19;38.70;36.20;40.62;;
40465;Laerm;30489;48.982;8.394;2023-12-20T08:21:29;38.69;36.45;40.53;;
40465;Laerm;30489;48.982;8.394;2023-12-20T08:23:40;38.69;36.45;40.43;;
40465;Laerm;30489;48.982;8.394;2023-12-20T08:25:50;38.75;35.94;40.53;;
40465;Laerm;30489;48.982;8.394;2023-12-20T08:28:02;38.76;36.20;40.54;;
40465;Laerm;30489;48.982;8.394;2023-12-20T08:30:12;38.77;36.20;40.53;;
40465;Laerm;30489;48.982;8.394;2023-12-20T08:32:26;38.84;36.69;40.63;;
40465;Laerm;30489;48.982;8.394;2023-12-20T08:34:36;38.86;36.69;40.62;;
40465;Laerm;30489;48.982;8.394;2023-12-20T08:36:47;38.91;36.45;40.80;;
40465;Laerm;30489;48.982;8.394;2023-12-20T08:38:57;38.93;36.91;40.62;;
40465;Laerm;30489;48.982;8.394;2023-12-20T08:41:07;39.00;36.69;40.89;;
40465;Laerm;30489;48.982;8.394;2023-12-20T08:43:18;39.06;36.91;40.89;;
40465;Laerm;30489;48.982;8.394;2023-12-20T08:45:28;39.04;37.12;40.80;;
40465;Laerm;30489;48.982;8.394;2023-12-20T08:47:38;39.05;36.69;40.80;;
40465;Laerm;30489;48.982;8.394;2023-12-20T08:49:51;39.07;36.91;40.89;;
40465;Laerm;30489;48.982;8.394;2023-12-20T08:52:01;39.15;36.69;41.14;;
40465;Laerm;30489;48.982;8.394;2023-12-20T08:54:11;39.14;37.12;40.80;;
40465;Laerm;30489;48.982;8.394;2023-12-20T08:56:23;39.17;37.12;40.80;;
40465;Laerm;30489;48.982;8.394;2023-12-20T08:58:33;39.19;37.12;40.71;;
40465;Laerm;30489;48.982;8.394;2023-12-20T09:00:45;39.19;37.12;40.98;;
40465;Laerm;30489;48.982;8.394;2023-12-20T09:02:56;39.22;36.91;41.14;;
40465;Laerm;30489;48.982;8.394;2023-12-20T09:05:06;39.21;37.12;40.80;;
40465;Laerm;30489;48.982;8.394;2023-12-20T09:07:26;39.23;37.12;41.06;;
40465;Laerm;30489;48.982;8.394;2023-12-20T09:09:36;39.23;37.12;40.89;;
40465;Laerm;30489;48.982;8.394;2023-12-20T09:11:46;39.23;37.32;40.98;;
40465;Laerm;30489;48.982;8.394;2023-12-20T09:13:58;39.26;37.32;40.98;;
40465;Laerm;30489;48.982;8.394;2023-12-20T09:16:08;39.25;37.12;41.14;;
40465;Laerm;30489;48.982;8.394;2023-12-20T09:18:18;39.26;37.12;40.71;;
40465;Laerm;30489;48.982;8.394;2023-12-20T09:20:28;39.29;37.52;40.71;;
40465;Laerm;30489;48.982;8.394;2023-12-20T09:22:39;39.28;37.12;41.06;;
40465;Laerm;30489;48.982;8.394;2023-12-20T09:24:49;39.27;37.32;41.22;;
40465;Laerm;30489;48.982;8.394;2023-12-20T09:26:59;39.26;37.12;40.80;;
40465;Laerm;30489;48.982;8.394;2023-12-20T09:29:10;39.26;36.91;40.80;;
40465;Laerm;30489;48.982;8.394;2023-12-20T09:31:25;39.27;37.32;40.98;;
40465;Laerm;30489;48.982;8.394;2023-12-20T09:33:35;39.25;37.12;41.14;;
40465;Laerm;30489;48.982;8.394;2023-12-20T09:35:45;39.22;36.91;40.98;;
40465;Laerm;30489;48.982;8.394;2023-12-20T09:37:55;39.21;36.69;40.89;;
40465;Laerm;30489;48.982;8.394;2023-12-20T09:40:06;39.23;36.91;40.80;;
40465;Laerm;30489;48.982;8.394;2023-12-20T09:42:17;39.24;37.32;40.98;;
40465;Laerm;30489;48.982;8.394;2023-12-20T09:44:31;39.24;36.91;40.98;;
40465;Laerm;30489;48.982;8.394;2023-12-20T09:46:43;39.23;36.91;40.89;;
40465;Laerm;30489;48.982;8.394;2023-12-20T09:48:54;39.24;37.32;40.98;;
40465;Laerm;30489;48.982;8.394;2023-12-20T09:51:04;39.25;37.32;41.14;;
40465;Laerm;30489;48.982;8.394;2023-12-20T09:53:15;39.22;37.12;40.89;;
40465;Laerm;30489;48.982;8.394;2023-12-20T09:55:25;39.23;37.12;41.14;;
40465;Laerm;30489;48.982;8.394;2023-12-20T09:57:37;39.21;37.12;41.14;;
40465;Laerm;30489;48.982;8.394;2023-12-20T09:59:50;39.20;37.12;40.89;;
40465;Laerm;30489;48.982;8.394;2023-12-20T10:02:00;39.21;36.91;40.80;;
40465;Laerm;30489;48.982;8.394;2023-12-20T10:04:12;39.24;37.12;41.06;;
40465;Laerm;30489;48.982;8.394;2023-12-20T10:06:22;39.22;37.17;41.30;;
40465;Laerm;30489;48.982;8.394;2023-12-20T10:08:32;39.22;36.91;40.98;;
40465;Laerm;30489;48.982;8.394;2023-12-20T10:10:44;39.25;37.12;40.98;;
40465;Laerm;30489;48.982;8.394;2023-12-20T10:13:05;39.30;37.12;41.06;;
40465;Laerm;30489;48.982;8.394;2023-12-20T10:15:16;39.31;37.12;40.98;;
40465;Laerm;30489;48.982;8.394;2023-12-20T10:17:29;39.31;37.12;41.22;;
40465;Laerm;30489;48.982;8.394;2023-12-20T10:19:39;39.33;37.32;41.06;;
40465;Laerm;30489;48.982;8.394;2023-12-20T10:21:49;39.36;37.12;41.38;;
40465;Laerm;30489;48.982;8.394;2023-12-20T10:24:00;39.38;37.32;41.22;;
40465;Laerm;30489;48.982;8.394;2023-12-20T10:26:10;39.36;37.32;41.14;;
40465;Laerm;30489;48.982;8.394;2023-12-20T10:28:32;39.37;37.12;41.06;;
40465;Laerm;30489;48.982;8.394;2023-12-20T10:30:44;39.37;37.52;41.22;;
40465;Laerm;30489;48.982;8.394;2023-12-20T10:32:54;39.37;37.52;41.06;;
40465;Laerm;30489;48.982;8.394;2023-12-20T10:35:04;39.39;37.32;40.98;;
40465;Laerm;30489;48.982;8.394;2023-12-20T10:37:15;39.39;37.52;41.06;;
40465;Laerm;30489;48.982;8.394;2023-12-20T10:39:25;39.39;37.52;41.14;;
40465;Laerm;30489;48.982;8.394;2023-12-20T10:41:35;39.40;37.12;41.06;;
40465;Laerm;30489;48.982;8.394;2023-12-20T10:44:01;39.43;37.70;41.30;;
40465;Laerm;30489;48.982;8.394;2023-12-20T10:46:12;39.45;37.32;41.14;;
40465;Laerm;30489;48.982;8.394;2023-12-20T10:48:23;39.45;37.70;40.98;;
40465;Laerm;30489;48.982;8.394;2023-12-20T10:50:39;39.44;37.52;41.30;;
40465;Laerm;30489;48.982;8.394;2023-12-20T10:52:50;39.49;37.32;41.14;;
40465;Laerm;30489;48.982;8.394;2023-12-20T10:55:05;39.48;37.70;41.06;;
40465;Laerm;30489;48.982;8.394;2023-12-20T10:57:16;39.51;37.52;41.22;;
40465;Laerm;30489;48.982;8.394;2023-12-20T10:59:28;39.48;37.52;41.22;;
40465;Laerm;30489;48.982;8.394;2023-12-20T11:01:39;39.52;37.88;41.06;;
40465;Laerm;30489;48.982;8.394;2023-12-20T11:03:51;39.53;37.52;41.06;;
40465;Laerm;30489;48.982;8.394;2023-12-20T11:06:03;39.53;37.32;41.06;;
40465;Laerm;30489;48.982;8.394;2023-12-20T11:10:26;39.57;37.52;41.30;;
40465;Laerm;30489;48.982;8.394;2023-12-20T11:12:59;39.62;37.70;41.22;;
40465;Laerm;30489;48.982;8.394;2023-12-20T11:15:10;39.66;37.70;41.30;;
40465;Laerm;30489;48.982;8.394;2023-12-20T11:17:21;39.66;37.88;41.30;;
40465;Laerm;30489;48.982;8.394;2023-12-20T11:19:31;39.67;37.70;41.30;;
40465;Laerm;30489;48.982;8.394;2023-12-20T11:21:41;39.67;37.88;41.06;;
40465;Laerm;30489;48.982;8.394;2023-12-20T11:23:51;39.65;37.70;41.38;;
40465;Laerm;30489;48.982;8.394;2023-12-20T11:26:02;39.68;37.52;41.14;;
40465;Laerm;30489;48.982;8.394;2023-12-20T11:28:12;39.68;37.70;41.22;;
40465;Laerm;30489;48.982;8.394;2023-12-20T11:30:23;39.71;37.70;41.22;;
40465;Laerm;30489;48.982;8.394;2023-12-20T11:32:34;39.72;37.70;41.26;;
40465;Laerm;30489;48.982;8.394;2023-12-20T11:34:44;39.76;38.21;41.30;;
40465;Laerm;30489;48.982;8.394;2023-12-20T11:36:58;39.77;37.70;41.22;;
40465;Laerm;30489;48.982;8.394;2023-12-20T11:39:09;39.80;38.21;41.30;;
40465;Laerm;30489;48.982;8.394;2023-12-20T11:41:22;39.80;37.70;41.22;;
40465;Laerm;30489;48.982;8.394;2023-12-20T11:43:34;39.81;37.88;41.22;;
40465;Laerm;30489;48.982;8.394;2023-12-20T11:45:51;39.81;37.88;41.38;;
40465;Laerm;30489;48.982;8.394;2023-12-20T11:48:02;39.83;37.88;41.30;;
40465;Laerm;30489;48.982;8.394;2023-12-20T11:50:12;39.77;38.05;41.22;;
40465;Laerm;30489;48.982;8.394;2023-12-20T11:52:23;39.72;37.88;41.30;;
40465;Laerm;30489;48.982;8.394;2023-12-20T11:54:33;39.69;37.88;41.14;;
40465;Laerm;30489;48.982;8.394;2023-12-20T11:56:43;39.69;37.70;41.14;;
40465;Laerm;30489;48.982;8.394;2023-12-20T11:58:53;39.70;37.52;41.14;;
40465;Laerm;30489;48.982;8.394;2023-12-20T12:01:04;39.73;37.52;41.30;;
40465;Laerm;30489;48.982;8.394;2023-12-20T12:03:17;39.77;37.70;41.30;;
40465;Laerm;30489;48.982;8.394;2023-12-20T12:05:28;39.80;38.05;41.30;;
40465;Laerm;30489;48.982;8.394;2023-12-20T12:07:38;39.78;37.70;41.38;;
40465;Laerm;30489;48.982;8.394;2023-12-20T12:09:48;39.83;38.05;41.33;;
40465;Laerm;30489;48.982;8.394;2023-12-20T12:11:58;39.79;38.05;41.22;;
40465;Laerm;30489;48.982;8.394;2023-12-20T12:14:09;39.80;38.05;41.53;;